createdAt,value
2018-02-09T00:00:46.960Z,133.18
2018-02-09T00:03:15.285Z,113.30
2018-02-09T00:05:43.658Z,147.68
2018-02-09T00:08:11.987Z,131.63
2018-02-09T00:10:40.328Z,141.07
2018-02-09T00:13:08.935Z,124.62
2018-02-09T00:15:37.260Z,116.47
2018-02-09T00:18:05.600Z,118.22
2018-02-09T00:20:33.984Z,133.02
2018-02-09T00:23:02.308Z,127.85
2018-02-09T00:25:30.628Z,123.87
2018-02-09T00:27:59.003Z,119.47
2018-02-09T00:30:27.325Z,122.82
2018-02-09T00:32:55.652Z,124.95
2018-02-09T00:35:24.011Z,110.50
2018-02-09T00:37:52.676Z,134.98
2018-02-09T00:40:21.759Z,129.93
2018-02-09T00:42:50.900Z,115.88
2018-02-09T00:45:19.228Z,126.18
2018-02-09T00:47:47.559Z,118.90
2018-02-09T00:50:15.944Z,112.28
2018-02-09T00:52:44.271Z,125.28
2018-02-09T00:55:12.611Z,130.07
2018-02-09T00:57:41.000Z,116.80
2018-02-09T01:00:09.324Z,113.12
2018-02-09T01:02:37.691Z,115.78
2018-02-09T01:05:06.827Z,124.00
2018-02-09T01:07:35.147Z,118.07
2018-02-09T01:10:03.524Z,127.60
2018-02-09T01:12:31.899Z,124.15
2018-02-09T01:15:00.217Z,116.62
2018-02-09T01:17:28.539Z,113.28
2018-02-09T01:19:57.532Z,118.20
2018-02-09T01:22:25.843Z,120.57
2018-02-09T01:24:54.192Z,136.68
2018-02-09T01:27:22.564Z,123.18
2018-02-09T01:29:50.896Z,108.12
2018-02-09T01:32:19.233Z,119.40
2018-02-09T01:34:47.608Z,109.90
2018-02-09T01:37:15.945Z,119.07
2018-02-09T01:39:44.260Z,103.20
2018-02-09T01:42:12.642Z,127.05
2018-02-09T01:44:40.963Z,104.63
2018-02-09T01:47:09.300Z,116.10
2018-02-09T01:49:37.662Z,116.00
2018-02-09T01:52:06.084Z,110.32
2018-02-09T01:54:35.172Z,109.25
2018-02-09T01:57:03.599Z,120.65
2018-02-09T01:59:31.922Z,117.62
2018-02-09T02:02:00.298Z,111.55
2018-02-09T02:04:28.751Z,110.15
2018-02-09T02:06:57.073Z,121.40
2018-02-09T02:09:25.396Z,123.57
2018-02-09T02:11:53.789Z,127.10
2018-02-09T02:14:22.115Z,109.50
2018-02-09T02:16:50.459Z,108.57
2018-02-09T02:19:19.700Z,111.97
2018-02-09T02:21:48.015Z,116.78
2018-02-09T02:24:16.339Z,131.10
2018-02-09T02:26:44.772Z,124.20
2018-02-09T02:29:13.094Z,113.93
2018-02-09T02:31:42.498Z,113.47
2018-02-09T02:34:11.987Z,107.05
2018-02-09T02:36:40.546Z,108.50
2018-02-09T02:39:08.904Z,129.25
2018-02-09T02:41:37.951Z,110.80
2018-02-09T02:44:06.291Z,97.45
2018-02-09T02:46:35.360Z,111.10
2018-02-09T02:49:03.736Z,124.72
2018-02-09T02:51:32.053Z,135.45
2018-02-09T02:54:00.362Z,119.47
2018-02-09T02:56:28.743Z,109.70
2018-02-09T02:58:57.071Z,105.85
2018-02-09T03:01:25.402Z,124.10
2018-02-09T03:03:53.752Z,107.20
2018-02-09T03:06:22.076Z,119.45
2018-02-09T03:08:50.391Z,109.12
2018-02-09T03:11:18.752Z,108.90
2018-02-09T03:13:47.836Z,111.12
2018-02-09T03:16:16.151Z,107.80
2018-02-09T03:18:44.505Z,105.68
2018-02-09T03:21:12.828Z,118.45
2018-02-09T03:23:41.538Z,115.07
2018-02-09T03:26:09.935Z,129.05
2018-02-09T03:28:38.247Z,123.07
2018-02-09T03:31:07.159Z,119.13
2018-02-09T03:33:35.535Z,118.15
2018-02-09T03:36:03.848Z,112.12
2018-02-09T03:38:32.172Z,118.68
2018-02-09T03:41:00.676Z,109.40
2018-02-09T03:43:28.992Z,110.12
2018-02-09T03:45:58.339Z,103.27
2018-02-09T03:48:26.735Z,116.72
2018-02-09T03:50:55.363Z,107.12
2018-02-09T03:53:23.724Z,108.32
2018-02-09T03:55:52.375Z,98.25
2018-02-09T03:58:20.688Z,113.03
2018-02-09T04:00:49.073Z,118.70
2018-02-09T04:03:17.422Z,117.43
2018-02-09T04:05:46.499Z,114.78
2018-02-09T04:08:14.811Z,119.03
2018-02-09T04:10:43.956Z,109.68
2018-02-09T04:13:12.275Z,110.88
2018-02-09T04:15:40.595Z,108.53
2018-02-09T04:18:08.972Z,116.82
2018-02-09T04:20:37.835Z,118.10
2018-02-09T04:23:06.156Z,123.03
2018-02-09T04:25:34.524Z,125.65
2018-02-09T04:28:02.864Z,123.70
2018-02-09T04:30:31.953Z,121.20
2018-02-09T04:33:01.087Z,111.95
2018-02-09T04:35:29.400Z,124.30
2018-02-09T04:37:57.715Z,116.15
2018-02-09T04:40:27.049Z,106.55
2018-02-09T04:42:55.437Z,116.68
2018-02-09T04:45:23.758Z,112.47
2018-02-09T04:47:52.139Z,114.93
2018-02-09T04:50:20.459Z,120.30
2018-02-09T04:52:48.788Z,102.68
2018-02-09T04:55:17.151Z,113.80
2018-02-09T04:57:45.468Z,126.70
2018-02-09T05:00:14.555Z,127.35
2018-02-09T05:02:43.684Z,103.50
2018-02-09T05:05:11.991Z,111.22
2018-02-09T05:07:40.339Z,121.75
2018-02-09T05:10:08.715Z,109.97
2018-02-09T05:12:37.033Z,106.72
2018-02-09T05:15:05.356Z,109.70
2018-02-09T05:17:33.731Z,117.75
2018-02-09T05:20:02.068Z,113.47
2018-02-09T05:22:30.391Z,108.22
2018-02-09T05:24:58.767Z,109.57
2018-02-09T05:27:27.088Z,105.70
2018-02-09T05:29:55.399Z,119.47
2018-02-09T05:32:23.779Z,112.97
2018-02-09T05:34:52.868Z,124.15
2018-02-09T05:37:21.946Z,97.97
2018-02-09T05:39:50.299Z,124.38
2018-02-09T05:42:18.617Z,108.90
2018-02-09T05:44:46.936Z,107.43
2018-02-09T05:47:15.394Z,106.25
2018-02-09T05:49:43.747Z,114.10
2018-02-09T05:52:12.084Z,120.43
2018-02-09T05:54:40.560Z,108.55
2018-02-09T05:57:08.876Z,102.60
2018-02-09T05:59:37.188Z,110.05
2018-02-09T06:02:06.075Z,109.65
2018-02-09T06:04:34.396Z,110.10
2018-02-09T06:07:02.722Z,114.15
2018-02-09T06:09:31.123Z,119.65
2018-02-09T06:12:00.085Z,100.57
2018-02-09T06:14:28.440Z,114.82
2018-02-09T06:16:56.851Z,100.78
2018-02-09T06:19:25.955Z,109.43
2018-02-09T06:21:55.027Z,99.32
2018-02-09T06:24:23.392Z,103.85
2018-02-09T06:26:51.747Z,109.57
2018-02-09T06:29:20.088Z,115.45
2018-02-09T06:31:49.223Z,114.75
2018-02-09T06:34:17.608Z,122.95
2018-02-09T06:36:45.924Z,97.68
2018-02-09T06:39:15.204Z,105.80
2018-02-09T06:41:43.732Z,107.78
2018-02-09T06:44:12.043Z,114.72
2018-02-09T06:46:40.420Z,101.28
2018-02-09T06:49:08.734Z,106.80
2018-02-09T06:51:37.831Z,104.50
2018-02-09T06:54:06.204Z,118.30
2018-02-09T06:56:34.547Z,106.18
2018-02-09T06:59:02.861Z,106.68
2018-02-09T07:01:31.229Z,109.05
2018-02-09T07:03:59.543Z,109.45
2018-02-09T07:06:27.867Z,117.80
2018-02-09T07:08:56.234Z,104.10
2018-02-09T07:11:24.551Z,136.05
2018-02-09T07:13:52.873Z,127.83
2018-02-09T07:16:21.263Z,110.75
2018-02-09T07:18:49.572Z,109.30
2018-02-09T07:21:17.900Z,125.05
2018-02-09T07:23:46.262Z,108.82
2018-02-09T07:26:14.579Z,109.00
2018-02-09T07:28:42.914Z,123.45
2018-02-09T07:31:11.361Z,95.12
2018-02-09T07:33:39.713Z,100.10
2018-02-09T07:36:08.836Z,105.80
2018-02-09T07:38:37.208Z,98.32
2018-02-09T07:41:05.953Z,102.35
2018-02-09T07:43:34.401Z,97.97
2018-02-09T07:46:02.765Z,106.07
2018-02-09T07:48:31.076Z,90.97
2018-02-09T07:50:59.406Z,96.70
2018-02-09T07:53:27.794Z,83.15
2018-02-09T07:55:56.107Z,93.93
2018-02-09T07:58:24.423Z,100.25
2018-02-09T08:00:52.763Z,92.15
2018-02-09T08:03:21.094Z,110.73
2018-02-09T08:05:49.462Z,91.25
2018-02-09T08:08:17.784Z,92.00
2018-02-09T08:10:46.115Z,85.70
2018-02-09T08:13:14.478Z,90.47
2018-02-09T08:15:42.795Z,91.12
2018-02-09T08:18:11.132Z,89.75
2018-02-09T08:20:39.507Z,100.45
2018-02-09T08:23:08.166Z,91.30
2018-02-09T08:25:36.471Z,97.28
2018-02-09T08:28:04.840Z,92.03
2018-02-09T08:30:33.165Z,88.57
2018-02-09T08:33:02.271Z,87.93
2018-02-09T08:35:30.728Z,79.07
2018-02-09T08:37:59.040Z,96.10
2018-02-09T08:40:27.356Z,94.87
2018-02-09T08:42:55.708Z,79.13
2018-02-09T08:45:24.036Z,91.97
2018-02-09T08:47:52.371Z,85.80
2018-02-09T08:50:20.723Z,90.87
2018-02-09T08:52:49.048Z,87.53
2018-02-09T08:55:17.402Z,95.25
2018-02-09T08:57:45.764Z,77.03
2018-02-09T09:00:14.075Z,89.53
2018-02-09T09:02:42.383Z,85.78
2018-02-09T09:05:10.724Z,80.12
2018-02-09T09:07:39.037Z,66.40
2018-02-09T09:10:07.355Z,96.10
2018-02-09T09:12:35.715Z,93.90
2018-02-09T09:15:04.027Z,66.97
2018-02-09T09:17:32.346Z,84.65
2018-02-09T09:20:00.739Z,77.22
2018-02-09T09:22:29.024Z,74.65
2018-02-09T09:24:57.377Z,68.85
2018-02-09T09:27:25.704Z,79.15
2018-02-09T09:29:54.026Z,100.07
2018-02-09T09:32:22.404Z,87.32
2018-02-09T09:34:50.720Z,85.82
2018-02-09T09:37:19.032Z,82.88
2018-02-09T09:39:47.363Z,69.30
2018-02-09T09:42:15.672Z,89.25
2018-02-09T09:44:44.816Z,85.57
2018-02-09T09:47:13.151Z,58.22
2018-02-09T09:49:41.468Z,70.65
2018-02-09T09:52:09.836Z,93.47
2018-02-09T09:54:38.152Z,92.65
2018-02-09T09:57:06.467Z,88.53
2018-02-09T09:59:34.815Z,94.13
2018-02-09T10:02:03.132Z,86.40
2018-02-09T10:04:31.475Z,102.20
2018-02-09T10:06:59.784Z,85.80
2018-02-09T10:09:28.152Z,86.87
2018-02-09T10:11:57.240Z,97.95
2018-02-09T10:14:26.320Z,99.70
2018-02-09T10:16:54.679Z,82.82
2018-02-09T10:19:23.003Z,70.97
2018-02-09T10:21:51.315Z,92.43
2018-02-09T10:24:19.675Z,97.07
2018-02-09T10:26:47.996Z,103.12
2018-02-09T10:29:16.317Z,83.30
2018-02-09T10:31:44.663Z,93.17
2018-02-09T10:34:12.975Z,91.70
2018-02-09T10:36:41.303Z,82.27
2018-02-09T10:39:09.639Z,83.27
2018-02-09T10:41:39.122Z,85.20
2018-02-09T10:44:07.471Z,81.60
2018-02-09T10:46:35.914Z,89.47
2018-02-09T10:49:04.229Z,88.00
2018-02-09T10:51:32.544Z,75.97
2018-02-09T10:54:00.920Z,81.28
2018-02-09T10:56:29.230Z,79.97
2018-02-09T10:58:57.556Z,83.80
2018-02-09T11:01:32.491Z,56.03
2018-02-09T11:04:00.808Z,85.20
2018-02-09T11:06:29.129Z,76.68
2018-02-09T11:08:57.766Z,84.50
2018-02-09T11:11:26.887Z,87.53
2018-02-09T11:13:55.163Z,95.17
2018-02-09T11:16:23.504Z,69.53
2018-02-09T11:18:52.575Z,74.80
2018-02-09T11:21:20.887Z,65.70
2018-02-09T11:23:49.247Z,67.40
2018-02-09T11:26:17.553Z,77.53
2018-02-09T11:28:45.864Z,70.87
2018-02-09T11:31:14.219Z,83.00
2018-02-09T11:33:42.537Z,84.00
2018-02-09T11:36:10.852Z,80.33
2018-02-09T11:38:39.223Z,86.23
2018-02-09T11:41:08.304Z,74.77
2018-02-09T11:43:37.391Z,84.93
2018-02-09T11:46:05.745Z,81.87
2018-02-09T11:48:34.061Z,69.83
2018-02-09T11:51:02.379Z,70.50
2018-02-09T11:53:30.715Z,72.17
2018-02-09T11:55:59.787Z,56.37
2018-02-09T11:58:28.099Z,71.17
2018-02-09T12:00:56.459Z,73.00
2018-02-09T12:03:24.778Z,52.70
2018-02-09T12:05:53.099Z,55.17
2018-02-09T12:08:21.534Z,64.33
2018-02-09T12:10:49.852Z,46.30
2018-02-09T12:13:18.296Z,59.40
2018-02-09T12:15:46.703Z,63.83
2018-02-09T12:18:15.032Z,62.30
2018-02-09T12:20:43.571Z,54.10
2018-02-09T12:23:11.948Z,55.67
2018-02-09T12:25:40.288Z,70.37
2018-02-09T12:28:08.663Z,49.50
2018-02-09T12:30:37.149Z,56.77
2018-02-09T12:33:05.580Z,58.20
2018-02-09T12:35:33.967Z,65.67
2018-02-09T12:38:02.825Z,71.53
2018-02-09T12:40:31.096Z,58.03
2018-02-09T12:42:59.416Z,55.50
2018-02-09T12:45:27.753Z,57.80
2018-02-09T12:47:56.059Z,65.13
2018-02-09T12:50:24.404Z,61.90
2018-02-09T12:52:52.711Z,57.53
2018-02-09T12:55:21.076Z,60.40
2018-02-09T12:57:50.305Z,40.90
2018-02-09T13:00:19.400Z,55.33
2018-02-09T13:02:48.213Z,44.00
2018-02-09T13:05:16.515Z,48.43
2018-02-09T13:07:45.833Z,54.73
2018-02-09T13:10:14.245Z,47.17
2018-02-09T13:13:01.103Z,54.67
2018-02-09T13:15:29.423Z,49.07
2018-02-09T13:17:57.728Z,48.60
2018-02-09T13:20:26.079Z,48.37
2018-02-09T13:23:11.952Z,49.77
2018-02-09T13:25:40.319Z,53.03
2018-02-09T13:28:08.687Z,57.73
2018-02-09T13:30:37.014Z,47.80
2018-02-09T13:33:23.236Z,51.67
2018-02-09T13:35:51.540Z,48.03
2018-02-09T13:38:19.853Z,52.77
2018-02-09T13:40:48.212Z,57.37
2018-02-09T13:43:16.515Z,53.10
2018-02-09T13:45:44.834Z,52.93
2018-02-09T13:48:13.185Z,56.33
2018-02-09T13:50:41.488Z,60.60
2018-02-09T13:53:09.791Z,50.07
2018-02-09T13:55:38.143Z,65.37
2018-02-09T13:58:06.448Z,60.93
2018-02-09T14:00:34.752Z,70.80
2018-02-09T14:03:03.113Z,56.43
2018-02-09T14:05:37.160Z,64.10
2018-02-09T14:08:06.469Z,48.20
2018-02-09T14:10:34.780Z,70.83
2018-02-09T14:13:03.100Z,70.83
2018-02-09T14:15:31.487Z,56.60
2018-02-09T14:18:00.572Z,54.93
2018-02-09T14:20:28.918Z,62.77
2018-02-09T14:22:57.267Z,55.73
2018-02-09T14:25:25.572Z,56.80
2018-02-09T14:27:53.881Z,61.50
2018-02-09T14:30:22.308Z,64.50
2018-02-09T14:32:50.615Z,64.53
2018-02-09T14:35:18.920Z,55.37
2018-02-09T14:37:48.135Z,59.30
2018-02-09T14:40:16.439Z,62.53
2018-02-09T14:42:44.747Z,57.20
2018-02-09T14:45:13.113Z,56.80
2018-02-09T14:47:41.424Z,54.37
2018-02-09T14:50:09.730Z,60.47
2018-02-09T14:52:38.088Z,60.90
2018-02-09T14:55:07.165Z,59.87
2018-02-09T14:57:35.471Z,61.87
2018-02-09T15:00:04.678Z,54.67
2018-02-09T15:02:32.995Z,74.97
2018-02-09T15:05:02.201Z,71.27
2018-02-09T15:07:31.835Z,67.00
2018-02-09T15:10:00.373Z,77.70
2018-02-09T15:12:28.695Z,67.27
2018-02-09T15:14:57.061Z,61.97
2018-02-09T15:17:25.367Z,54.70
2018-02-09T15:19:53.707Z,58.23
2018-02-09T15:22:22.088Z,67.03
2018-02-09T15:24:50.391Z,76.60
2018-02-09T15:27:19.468Z,66.93
2018-02-09T15:29:47.828Z,65.83
2018-02-09T15:32:16.135Z,55.90
2018-02-09T15:34:44.711Z,66.27
2018-02-09T15:37:13.080Z,70.00
2018-02-09T15:39:41.433Z,79.60
2018-02-09T15:42:09.760Z,68.70
2018-02-09T15:44:38.833Z,58.53
2018-02-09T15:47:07.807Z,62.53
2018-02-09T15:49:36.939Z,55.27
2018-02-09T15:52:05.265Z,71.63
2018-02-09T15:54:34.216Z,59.27
2018-02-09T15:57:03.355Z,71.00
2018-02-09T15:59:31.664Z,59.60
2018-02-09T16:01:59.988Z,71.73
2018-02-09T16:04:28.342Z,59.57
2018-02-09T16:06:57.424Z,71.93
2018-02-09T16:09:25.747Z,76.27
2018-02-09T16:11:54.639Z,62.23
2018-02-09T16:14:22.976Z,70.33
2018-02-09T16:16:51.281Z,61.53
2018-02-09T16:19:20.673Z,70.77
2018-02-09T16:21:48.988Z,85.10
2018-02-09T16:24:17.319Z,68.47
2018-02-09T16:26:45.680Z,77.37
2018-02-09T16:29:13.984Z,77.67
2018-02-09T16:31:43.056Z,80.10
2018-02-09T16:34:11.454Z,81.43
2018-02-09T16:36:39.772Z,70.13
2018-02-09T16:39:08.079Z,73.13
2018-02-09T16:41:36.492Z,76.03
2018-02-09T16:44:05.092Z,79.23
2018-02-09T16:46:33.420Z,79.35
2018-02-09T16:49:01.896Z,85.80
2018-02-09T16:51:30.220Z,72.90
2018-02-09T16:53:58.532Z,87.80
2018-02-09T16:56:26.906Z,88.70
2018-02-09T16:58:55.216Z,84.63
2018-02-09T17:01:23.528Z,71.83
2018-02-09T17:03:51.881Z,75.40
2018-02-09T17:06:20.184Z,77.63
2018-02-09T17:08:49.855Z,65.13
2018-02-09T17:11:18.171Z,93.53
2018-02-09T17:13:46.525Z,89.13
2018-02-09T17:16:14.896Z,91.03
2018-02-09T17:18:43.202Z,84.70
2018-02-09T17:21:11.524Z,86.03
2018-02-09T17:23:39.856Z,69.90
2018-02-09T17:26:08.826Z,77.78
2018-02-09T17:28:37.135Z,73.43
2018-02-09T17:31:05.500Z,84.57
2018-02-09T17:33:33.819Z,88.47
2018-02-09T17:36:02.156Z,75.13
2018-02-09T17:38:31.241Z,81.63
2018-02-09T17:41:00.315Z,74.83
2018-02-09T17:43:28.688Z,87.20
2018-02-09T17:45:57.068Z,85.70
2018-02-09T17:48:25.401Z,66.30
2018-02-09T17:50:54.535Z,88.77
2018-02-09T17:53:23.209Z,79.27
2018-02-09T17:55:51.560Z,82.97
2018-02-09T17:58:19.915Z,95.50
2018-02-09T18:00:48.280Z,83.70
2018-02-09T18:03:16.612Z,80.20
2018-02-09T18:05:44.924Z,93.07
2018-02-09T18:08:13.275Z,75.67
2018-02-09T18:10:41.579Z,72.43
2018-02-09T18:13:09.903Z,83.33
2018-02-09T18:15:38.272Z,82.57
2018-02-09T18:18:07.142Z,69.60
2018-02-09T18:20:35.522Z,79.10
2018-02-09T18:23:03.859Z,69.53
2018-02-09T18:25:32.190Z,87.73
2018-02-09T18:28:01.616Z,91.37
2018-02-09T18:30:29.980Z,86.90
2018-02-09T18:32:58.315Z,83.13
2018-02-09T18:35:26.672Z,81.27
2018-02-09T18:37:55.391Z,77.93
2018-02-09T18:40:23.879Z,84.87
2018-02-09T18:42:52.627Z,88.23
2018-02-09T18:45:20.939Z,92.40
2018-02-09T18:47:49.251Z,78.47
2018-02-09T18:50:17.660Z,88.07
2018-02-09T18:52:45.978Z,70.97
2018-02-09T18:55:14.283Z,79.80
2018-02-09T18:57:42.700Z,81.90
2018-02-09T19:00:11.011Z,84.37
2018-02-09T19:02:39.311Z,76.63
2018-02-09T19:05:07.671Z,72.40
2018-02-09T19:07:35.976Z,81.00
2018-02-09T19:10:05.193Z,87.70
2018-02-09T19:12:33.549Z,88.33
2018-02-09T19:15:01.864Z,85.53
2018-02-09T19:17:30.184Z,66.20
2018-02-09T19:19:58.828Z,75.80
2018-02-09T19:22:27.135Z,81.07
2018-02-09T19:24:55.723Z,86.10
2018-02-09T19:27:24.106Z,82.57
2018-02-09T19:29:52.437Z,74.83
2018-02-09T19:32:21.011Z,81.30
2018-02-09T19:34:49.345Z,90.73
2018-02-09T19:37:17.647Z,79.63
2018-02-09T19:39:45.956Z,81.67
2018-02-09T19:42:14.840Z,71.60
2018-02-09T19:44:43.155Z,83.30
2018-02-09T19:47:11.515Z,79.77
2018-02-09T19:49:40.234Z,71.90
2018-02-09T19:52:08.723Z,73.03
2018-02-09T19:54:37.148Z,84.30
2018-02-09T19:57:05.471Z,87.00
2018-02-09T19:59:34.476Z,72.53
2018-02-09T20:02:03.588Z,70.33
2018-02-09T20:04:31.919Z,86.73
2018-02-09T20:07:00.328Z,86.65
2018-02-09T20:09:29.427Z,83.57
2018-02-09T20:11:59.132Z,81.57
2018-02-09T20:14:27.485Z,88.93
2018-02-09T20:16:55.791Z,77.50
2018-02-09T20:19:24.115Z,93.73
2018-02-09T20:21:53.148Z,85.30
2018-02-09T20:24:21.487Z,84.83
2018-02-09T20:26:50.163Z,67.60
2018-02-09T20:29:18.735Z,83.60
2018-02-09T20:31:47.053Z,92.80
2018-02-09T20:34:15.368Z,75.43
2018-02-09T20:36:43.758Z,101.20
2018-02-09T20:39:12.831Z,100.47
2018-02-09T20:41:41.905Z,91.23
2018-02-09T20:44:10.919Z,86.77
2018-02-09T20:46:39.264Z,100.77
2018-02-09T20:49:07.636Z,101.10
2018-02-09T20:51:35.991Z,114.57
2018-02-09T20:54:04.313Z,90.93
2018-02-09T20:56:32.675Z,83.27
2018-02-09T20:59:01.860Z,104.30
2018-02-09T21:01:30.167Z,93.27
2018-02-09T21:03:58.559Z,95.80
2018-02-09T21:06:26.888Z,73.57
2018-02-09T21:08:55.208Z,97.60
2018-02-09T21:11:23.560Z,95.63
2018-02-09T21:13:51.937Z,82.80
2018-02-09T21:16:20.228Z,85.68
2018-02-09T21:18:48.568Z,88.53
2018-02-09T21:21:16.884Z,82.43
2018-02-09T21:23:45.280Z,89.07
2018-02-09T21:26:13.618Z,87.20
2018-02-09T21:28:42.647Z,91.72
2018-02-09T21:31:10.987Z,89.07
2018-02-09T21:33:39.644Z,87.95
2018-02-09T21:36:08.309Z,96.95
2018-02-09T21:38:36.671Z,96.03
2018-02-09T21:41:04.984Z,82.43
2018-02-09T21:43:33.296Z,87.68
2018-02-09T21:46:01.648Z,103.20
2018-02-09T21:48:30.196Z,91.27
2018-02-09T21:50:59.560Z,78.07
2018-02-09T21:53:27.901Z,80.28
2018-02-09T21:55:56.308Z,83.78
2018-02-09T21:58:24.680Z,76.72
2018-02-09T22:00:53.004Z,84.53
2018-02-09T22:03:21.329Z,77.05
2018-02-09T22:05:49.706Z,105.87
2018-02-09T22:08:18.065Z,95.32
2018-02-09T22:10:46.435Z,100.38
2018-02-09T22:13:14.760Z,84.93
2018-02-09T22:15:43.224Z,89.20
2018-02-09T22:18:11.553Z,101.22
2018-02-09T22:20:39.876Z,93.10
2018-02-09T22:23:08.244Z,112.43
2018-02-09T22:25:36.559Z,97.62
2018-02-09T22:28:04.872Z,98.40
2018-02-09T22:30:33.224Z,93.23
2018-02-09T22:33:02.132Z,100.33
2018-02-09T22:35:30.447Z,87.00
2018-02-09T22:37:58.796Z,83.90
2018-02-09T22:40:27.110Z,86.63
2018-02-09T22:42:55.412Z,73.93
2018-02-09T22:45:23.780Z,74.50
2018-02-09T22:47:52.095Z,79.80
2018-02-09T22:50:20.411Z,93.05
2018-02-09T22:52:48.779Z,78.45
2018-02-09T22:55:17.088Z,80.97
2018-02-09T22:57:45.396Z,76.77
2018-02-09T23:00:13.775Z,78.10
2018-02-09T23:02:42.089Z,100.13
2018-02-09T23:05:11.161Z,75.30
2018-02-09T23:07:39.532Z,83.57
2018-02-09T23:10:07.864Z,93.00
2018-02-09T23:12:36.183Z,74.55
2018-02-09T23:15:04.544Z,83.73
2018-02-09T23:17:33.564Z,82.72
2018-02-09T23:20:01.884Z,76.30
2018-02-09T23:22:30.251Z,86.97
2018-02-09T23:24:58.572Z,77.85
2018-02-09T23:27:26.886Z,74.67
2018-02-09T23:29:55.239Z,87.13
2018-02-09T23:32:23.572Z,76.00
2018-02-09T23:34:51.891Z,92.28
2018-02-09T23:37:20.248Z,76.72
2018-02-09T23:39:48.575Z,82.25
2018-02-09T23:42:16.976Z,82.12
2018-02-09T23:44:45.336Z,80.50
2018-02-09T23:47:13.647Z,88.47
2018-02-09T23:49:41.999Z,86.33
2018-02-09T23:52:11.080Z,78.12
2018-02-09T23:54:39.392Z,76.07
2018-02-09T23:57:07.780Z,85.35
2018-02-09T23:59:36.103Z,81.30
